createdAt,value
2018-04-14T00:01:42.196Z,60.90
2018-04-14T00:04:13.508Z,59.28
2018-04-14T00:09:20.989Z,54.58
2018-04-14T00:12:04.231Z,54.17
2018-04-14T00:14:35.555Z,55.88
2018-04-14T00:17:06.764Z,61.80
2018-04-14T00:19:44.157Z,67.62
2018-04-14T00:22:15.520Z,60.33
2018-04-14T00:24:46.761Z,56.58
2018-04-14T00:27:17.762Z,59.40
2018-04-14T00:32:51.934Z,56.95
2018-04-14T00:35:39.766Z,53.80
2018-04-14T00:38:10.624Z,61.17
2018-04-14T00:40:43.107Z,60.15
2018-04-14T00:43:14.531Z,60.65
2018-04-14T00:45:46.417Z,58.25
2018-04-14T00:57:42.333Z,69.37
2018-04-14T01:03:27.771Z,62.92
2018-04-14T01:06:04.167Z,58.90
2018-04-14T01:11:26.941Z,70.12
2018-04-14T01:13:59.029Z,64.15
2018-04-14T01:16:39.444Z,63.92
2018-04-14T01:22:07.588Z,58.15
2018-04-14T01:24:39.987Z,63.30
2018-04-14T01:27:11.127Z,55.70
2018-04-14T01:29:42.395Z,65.93
2018-04-14T01:32:31.950Z,63.87
2018-04-14T01:35:07.576Z,63.40
2018-04-14T01:37:46.847Z,63.25
2018-04-14T01:43:46.826Z,61.88
2018-04-14T01:46:51.461Z,84.80
2018-04-14T01:50:00.345Z,81.40
2018-04-14T01:59:22.262Z,58.75
2018-04-14T02:11:08.244Z,62.08
2018-04-14T02:13:39.134Z,67.95
2018-04-14T02:16:10.066Z,66.87
2018-04-14T02:18:41.029Z,65.22
2018-04-14T02:21:11.790Z,63.20
2018-04-14T02:23:42.384Z,61.58
2018-04-14T02:26:13.735Z,69.60
2018-04-14T02:28:44.400Z,67.87
2018-04-14T02:31:19.779Z,60.70
2018-04-14T02:33:50.593Z,61.92
2018-04-14T02:36:21.390Z,62.62
2018-04-14T02:38:52.297Z,68.97
2018-04-14T02:41:23.429Z,64.32
2018-04-14T02:43:54.101Z,63.22
2018-04-14T02:46:24.971Z,62.92
2018-04-14T02:48:55.701Z,70.20
2018-04-14T02:51:26.389Z,62.85
2018-04-14T02:53:57.082Z,61.22
2018-04-14T02:56:27.855Z,60.47
2018-04-14T02:58:58.592Z,55.08
2018-04-14T03:01:29.261Z,59.00
2018-04-14T03:04:00.178Z,56.17
2018-04-14T03:06:31.318Z,65.62
2018-04-14T03:09:01.996Z,56.40
2018-04-14T03:11:32.985Z,60.30
2018-04-14T03:14:03.750Z,63.67
2018-04-14T03:16:34.627Z,62.70
2018-04-14T03:19:05.344Z,60.05
2018-04-14T03:21:36.021Z,60.22
2018-04-14T03:24:06.607Z,58.30
2018-04-14T03:26:37.731Z,60.60
2018-04-14T03:29:08.381Z,61.88
2018-04-14T03:34:39.598Z,66.95
2018-04-14T03:37:10.629Z,65.60
2018-04-14T03:39:41.560Z,65.40
2018-04-14T03:42:12.200Z,68.18
2018-04-14T03:44:42.907Z,67.32
2018-04-14T03:47:14.932Z,54.80
2018-04-14T03:49:46.015Z,58.33
2018-04-14T03:52:16.676Z,62.97
2018-04-14T03:54:48.467Z,58.78
2018-04-14T03:57:19.110Z,59.13
2018-04-14T03:59:50.033Z,63.00
2018-04-14T04:02:20.693Z,59.22
2018-04-14T04:04:51.732Z,65.90
2018-04-14T04:07:22.593Z,59.70
2018-04-14T04:09:53.332Z,67.10
2018-04-14T04:12:24.049Z,62.62
2018-04-14T04:14:55.072Z,56.45
2018-04-14T04:17:26.024Z,63.28
2018-04-14T04:20:30.696Z,60.95
2018-04-14T04:23:13.283Z,62.75
2018-04-14T04:25:44.757Z,61.70
2018-04-14T04:28:15.192Z,56.53
2018-04-14T04:30:45.755Z,61.92
2018-04-14T04:33:16.295Z,62.60
2018-04-14T04:35:46.858Z,61.03
2018-04-14T04:38:17.337Z,55.35
2018-04-14T04:40:48.863Z,73.78
2018-04-14T04:43:19.360Z,61.37
2018-04-14T04:45:50.119Z,68.95
2018-04-14T04:48:20.808Z,62.53
2018-04-14T04:50:51.501Z,64.55
2018-04-14T04:53:22.111Z,63.87
2018-04-14T04:55:53.157Z,60.70
2018-04-14T04:58:23.869Z,59.90
2018-04-14T05:00:55.271Z,64.45
2018-04-14T05:03:26.035Z,55.40
2018-04-14T05:05:56.639Z,60.47
2018-04-14T05:08:27.358Z,62.40
2018-04-14T05:11:01.386Z,66.10
2018-04-14T05:13:32.655Z,56.63
2018-04-14T05:16:15.432Z,57.47
2018-04-14T05:24:58.533Z,61.25
2018-04-14T05:30:50.294Z,59.20
2018-04-14T05:33:39.241Z,58.50
2018-04-14T05:36:11.756Z,58.15
2018-04-14T05:38:43.201Z,57.67
2018-04-14T05:41:14.594Z,55.15
2018-04-14T05:43:57.270Z,70.93
2018-04-14T05:46:43.550Z,66.00
2018-04-14T05:49:27.605Z,56.30
2018-04-14T05:51:58.865Z,62.75
2018-04-14T05:57:47.251Z,62.28
2018-04-14T06:00:18.009Z,59.10
2018-04-14T06:02:49.465Z,60.12
2018-04-14T06:05:20.209Z,62.22
2018-04-14T06:07:52.385Z,60.95
2018-04-14T06:10:23.282Z,63.60
2018-04-14T06:12:53.928Z,55.12
2018-04-14T06:15:24.437Z,54.70
2018-04-14T06:17:55.824Z,57.38
2018-04-14T06:20:26.541Z,62.62
2018-04-14T06:22:57.320Z,57.72
2018-04-14T06:25:29.611Z,58.13
2018-04-14T06:28:00.415Z,61.65
2018-04-14T06:30:30.990Z,54.05
2018-04-14T06:33:02.304Z,60.55
2018-04-14T06:42:07.836Z,60.03
2018-04-14T06:44:38.721Z,63.03
2018-04-14T06:47:09.926Z,66.75
2018-04-14T06:49:40.981Z,59.97
2018-04-14T06:52:11.799Z,62.50
2018-04-14T06:54:44.574Z,72.80
2018-04-14T07:03:26.395Z,84.93
2018-04-14T07:05:59.829Z,70.70
2018-04-14T07:08:31.306Z,72.68
2018-04-14T07:11:13.668Z,86.70
2018-04-14T07:16:26.645Z,63.97
2018-04-14T07:19:01.001Z,74.65
2018-04-14T07:21:48.708Z,67.72
2018-04-14T07:24:22.699Z,69.43
2018-04-14T07:26:55.625Z,66.18
2018-04-14T07:29:27.948Z,64.45
2018-04-14T07:32:00.867Z,66.80
2018-04-14T07:34:31.528Z,66.80
2018-04-14T08:36:03.567Z,78.12
2018-04-14T09:32:01.586Z,79.72
2018-04-14T09:48:03.086Z,86.90
2018-04-14T09:50:37.567Z,77.55
2018-04-14T09:56:34.326Z,89.93
2018-04-14T10:08:48.101Z,69.60
2018-04-14T10:11:19.084Z,74.03
2018-04-14T10:22:28.472Z,74.85
2018-04-14T10:25:17.413Z,68.70
2018-04-14T10:31:23.205Z,70.78
2018-04-14T10:34:11.893Z,72.87
2018-04-14T10:39:28.039Z,68.45
2018-04-14T10:42:00.116Z,64.43
2018-04-14T10:44:31.062Z,60.85
2018-04-14T10:47:03.937Z,69.10
2018-04-14T10:49:34.834Z,68.57
2018-04-14T10:52:05.903Z,74.65
2018-04-14T10:54:36.676Z,70.18
2018-04-14T10:57:13.325Z,72.90
2018-04-14T10:59:44.213Z,72.28
2018-04-14T11:12:13.711Z,77.72
2018-04-14T11:14:46.931Z,72.45
2018-04-14T11:17:26.208Z,73.82
2018-04-14T11:20:00.408Z,76.95
2018-04-14T11:22:53.730Z,74.30
2018-04-14T11:25:53.310Z,77.68
2018-04-14T11:28:28.786Z,78.15
2018-04-14T11:30:59.733Z,73.97
2018-04-14T11:33:31.451Z,70.80
2018-04-14T11:36:02.898Z,75.05
2018-04-14T11:38:33.970Z,70.25
2018-04-14T11:41:13.851Z,84.53
2018-04-14T11:43:44.764Z,78.87
2018-04-14T11:46:17.540Z,77.22
2018-04-14T11:48:48.413Z,73.85
2018-04-14T11:51:20.233Z,79.62
2018-04-14T11:53:51.291Z,73.03
2018-04-14T11:56:23.677Z,73.75
2018-04-14T11:58:54.602Z,73.80
2018-04-14T12:01:28.930Z,76.87
2018-04-14T12:04:00.647Z,73.15
2018-04-14T12:06:31.846Z,72.35
2018-04-14T12:09:04.832Z,75.10
2018-04-14T12:11:49.558Z,73.97
2018-04-14T12:14:42.424Z,78.05
2018-04-14T12:17:17.396Z,74.35
2018-04-14T12:19:49.498Z,74.90
2018-04-14T12:22:38.486Z,80.43
2018-04-14T12:25:30.733Z,86.78
2018-04-14T13:25:57.365Z,73.05
2018-04-14T13:28:30.388Z,79.90
2018-04-14T13:31:05.898Z,76.57
2018-04-14T13:33:37.269Z,80.22
2018-04-14T13:36:09.242Z,87.55
2018-04-14T13:38:41.160Z,82.03
2018-04-14T13:41:15.152Z,81.20
2018-04-14T13:43:50.789Z,79.97
2018-04-14T13:47:04.538Z,80.28
2018-04-14T13:50:02.389Z,92.30
2018-04-14T13:56:22.715Z,93.12
2018-04-14T13:58:55.214Z,94.55
2018-04-14T14:01:35.146Z,89.18
2018-04-14T14:04:11.955Z,94.45
2018-04-14T14:06:45.264Z,86.95
2018-04-14T14:12:39.293Z,85.03
2018-04-14T14:15:14.508Z,73.37
2018-04-14T14:17:45.541Z,78.53
2018-04-14T14:20:18.104Z,80.75
2018-04-14T14:22:49.802Z,76.50
2018-04-14T14:25:22.325Z,80.87
2018-04-14T14:27:53.863Z,71.82
2018-04-14T14:30:24.888Z,81.18
2018-04-14T14:32:56.143Z,75.62
2018-04-14T14:35:27.177Z,82.88
2018-04-14T14:38:03.551Z,75.45
2018-04-14T14:40:37.922Z,79.62
2018-04-14T14:43:11.312Z,80.47
2018-04-14T14:45:43.302Z,80.90
2018-04-14T14:48:14.372Z,78.47
2018-04-14T14:50:45.367Z,78.43
2018-04-14T14:53:17.481Z,77.25
2018-04-14T14:55:48.275Z,79.37
2018-04-14T14:58:19.980Z,75.62
2018-04-14T15:00:51.567Z,75.05
2018-04-14T15:03:22.919Z,82.75
2018-04-14T15:05:53.653Z,81.10
2018-04-14T15:08:24.536Z,82.93
2018-04-14T15:10:55.236Z,75.25
2018-04-14T15:13:25.865Z,79.70
2018-04-14T15:16:02.870Z,78.00
2018-04-14T15:18:35.279Z,73.12
2018-04-14T15:21:06.258Z,70.62
2018-04-14T15:23:36.907Z,82.12
2018-04-14T15:26:07.623Z,76.32
2018-04-14T15:28:39.913Z,83.93
2018-04-14T15:31:14.136Z,87.00
2018-04-14T15:33:48.801Z,82.57
2018-04-14T15:36:26.883Z,82.18
2018-04-14T15:38:57.795Z,84.40
2018-04-14T15:41:28.677Z,83.75
2018-04-14T15:44:06.511Z,73.35
2018-04-14T15:46:50.157Z,79.10
2018-04-14T15:49:42.581Z,91.45
2018-04-14T15:52:13.835Z,77.68
2018-04-14T15:54:47.656Z,75.93
2018-04-14T15:57:18.852Z,76.78
2018-04-14T15:59:50.109Z,77.95
2018-04-14T16:02:21.288Z,79.95
2018-04-14T16:04:53.457Z,85.87
2018-04-14T16:07:24.955Z,76.18
2018-04-14T16:09:59.429Z,101.95
2018-04-14T16:12:32.827Z,88.28
2018-04-14T16:15:05.391Z,79.65
2018-04-14T16:17:37.666Z,84.72
2018-04-14T16:20:08.876Z,81.18
2018-04-14T16:22:42.419Z,81.10
2018-04-14T16:25:15.622Z,88.82
2018-04-14T16:27:48.384Z,83.28
2018-04-14T16:30:21.445Z,80.45
2018-04-14T16:32:52.897Z,87.78
2018-04-14T16:35:30.617Z,83.30
2018-04-14T16:38:02.204Z,83.40
2018-04-14T16:40:34.633Z,83.65
2018-04-14T16:43:06.672Z,84.80
2018-04-14T16:45:38.058Z,84.45
2018-04-14T16:48:09.089Z,82.00
2018-04-14T16:50:40.112Z,86.70
2018-04-14T16:53:12.469Z,93.25
2018-04-14T16:55:43.970Z,89.50
2018-04-14T16:58:16.668Z,80.12
2018-04-14T17:00:49.933Z,81.93
2018-04-14T17:03:21.285Z,78.30
2018-04-14T17:05:54.051Z,86.40
2018-04-14T17:08:26.537Z,95.70
2018-04-14T17:10:57.842Z,82.72
2018-04-14T17:13:32.214Z,84.55
2018-04-14T17:16:04.639Z,81.05
2018-04-14T17:18:38.046Z,80.80
2018-04-14T17:21:14.645Z,80.57
2018-04-14T17:23:48.098Z,84.55
2018-04-14T17:26:19.455Z,80.07
2018-04-14T17:28:51.797Z,84.97
2018-04-14T17:31:24.870Z,90.85
2018-04-14T17:33:58.722Z,92.57
2018-04-14T17:36:33.108Z,91.03
2018-04-14T17:39:09.166Z,86.37
2018-04-14T17:41:42.451Z,92.70
2018-04-14T17:44:17.034Z,79.10
2018-04-14T17:49:41.700Z,85.47
2018-04-14T17:52:12.464Z,92.30
2018-04-14T17:54:43.309Z,85.18
2018-04-14T17:57:14.270Z,85.18
2018-04-14T17:59:45.135Z,85.90
2018-04-14T18:02:24.540Z,85.20
2018-04-14T18:04:55.441Z,78.47
2018-04-14T18:07:27.456Z,77.15
2018-04-14T18:10:00.656Z,78.72
2018-04-14T18:12:32.086Z,72.55
2018-04-14T18:15:03.090Z,74.65
2018-04-14T18:17:34.967Z,86.50
2018-04-14T18:20:06.427Z,80.60
2018-04-14T18:22:37.656Z,80.57
2018-04-14T18:25:08.642Z,76.20
2018-04-14T18:27:39.674Z,83.72
2018-04-14T18:30:10.679Z,86.10
2018-04-14T18:32:46.373Z,80.12
2018-04-14T18:35:30.065Z,88.40
2018-04-14T18:38:13.274Z,82.45
2018-04-14T18:40:44.145Z,83.95
2018-04-14T18:43:15.040Z,84.28
2018-04-14T18:45:46.194Z,80.50
2018-04-14T18:48:17.057Z,72.15
2018-04-14T18:50:47.930Z,69.40
2018-04-14T18:53:27.091Z,71.10
2018-04-14T18:55:59.217Z,76.27
2018-04-14T18:58:32.197Z,75.47
2018-04-14T19:03:53.869Z,70.85
2018-04-14T19:06:31.859Z,84.93
2018-04-14T19:09:07.737Z,77.73
2018-04-14T19:11:39.678Z,77.50
2018-04-14T19:14:11.678Z,86.97
2018-04-14T19:16:42.788Z,81.43
2018-04-14T19:19:13.938Z,77.53
2018-04-14T19:21:49.170Z,81.10
2018-04-14T19:48:34.925Z,74.97
2018-04-14T19:51:11.140Z,78.85
2018-04-14T19:53:50.738Z,73.70
2018-04-14T19:56:22.784Z,77.20
2018-04-14T19:58:59.639Z,87.85
2018-04-14T20:01:30.782Z,75.10
2018-04-14T20:04:02.613Z,81.15
2018-04-14T20:06:42.615Z,80.75
2018-04-14T20:09:14.423Z,72.53
2018-04-14T20:21:31.606Z,79.30
2018-04-14T20:27:02.802Z,77.40
2018-04-14T20:29:34.154Z,88.70
2018-04-14T20:42:17.895Z,92.10
2018-04-14T20:58:01.095Z,74.28
2018-04-14T21:00:44.717Z,80.62
2018-04-14T21:03:21.384Z,75.97
2018-04-14T21:06:06.703Z,65.97
2018-04-14T21:08:40.123Z,72.05
2018-04-14T21:11:11.826Z,75.82
2018-04-14T21:13:44.053Z,69.50
2018-04-14T21:23:00.025Z,64.85
2018-04-14T21:31:38.819Z,73.75
2018-04-14T21:34:10.609Z,74.53
2018-04-14T21:36:42.018Z,77.28
2018-04-14T21:39:17.891Z,80.87
2018-04-14T21:41:50.026Z,76.55
2018-04-14T21:44:22.521Z,69.32
2018-04-14T21:46:55.263Z,74.07
2018-04-14T21:49:26.904Z,84.68
2018-04-14T21:51:58.210Z,77.18
2018-04-14T22:12:40.183Z,84.80
2018-04-14T22:15:13.159Z,81.90
2018-04-14T22:17:51.953Z,75.53
2018-04-14T22:20:23.435Z,75.12
2018-04-14T22:26:26.853Z,78.00
2018-04-14T22:34:54.605Z,64.93
2018-04-14T22:37:27.649Z,63.15
2018-04-14T22:40:06.063Z,65.37
2018-04-14T22:42:38.046Z,66.82
2018-04-14T22:48:12.213Z,64.72
2018-04-14T23:01:21.296Z,85.57
2018-04-14T23:10:23.522Z,72.07
2018-04-14T23:12:55.470Z,65.18
2018-04-14T23:24:38.864Z,72.80
2018-04-14T23:49:36.926Z,63.75
2018-04-14T23:55:11.208Z,70.95
